sensor_id;sensor_type;location;lat;lon;timestamp;pressure;altitude;pressure_sealevel;temperature;humidity
41062;BME280;26812;42.662;23.352;2023-05-03T00:02:07;95254.38;;;13.83;39.76
41062;BME280;26812;42.662;23.352;2023-05-03T00:04:32;95230.56;;;13.39;40.29
41062;BME280;26812;42.662;23.352;2023-05-03T00:06:58;95230.72;;;13.42;40.17
41062;BME280;26812;42.662;23.352;2023-05-03T00:09:24;95256.19;;;13.71;40.06
41062;BME280;26812;42.662;23.352;2023-05-03T00:11:50;95262.84;;;13.73;39.91
41062;BME280;26812;42.662;23.352;2023-05-03T00:14:15;95238.47;;;13.52;40.23
41062;BME280;26812;42.662;23.352;2023-05-03T00:16:40;95253.78;;;13.48;39.92
41062;BME280;26812;42.662;23.352;2023-05-03T00:19:06;95239.25;;;13.23;40.37
41062;BME280;26812;42.662;23.352;2023-05-03T00:21:31;95222.50;;;13.30;39.93
41062;BME280;26812;42.662;23.352;2023-05-03T00:23:57;95270.16;;;13.52;39.64
41062;BME280;26812;42.662;23.352;2023-05-03T00:26:23;95231.16;;;12.51;40.73
41062;BME280;26812;42.662;23.352;2023-05-03T00:28:48;95236.44;;;12.38;41.21
41062;BME280;26812;42.662;23.352;2023-05-03T00:31:13;95221.69;;;12.27;41.76
41062;BME280;26812;42.662;23.352;2023-05-03T00:33:39;95242.38;;;12.79;41.06
41062;BME280;26812;42.662;23.352;2023-05-03T00:36:12;95239.19;;;12.85;41.10
41062;BME280;26812;42.662;23.352;2023-05-03T00:38:38;95245.31;;;13.12;40.81
41062;BME280;26812;42.662;23.352;2023-05-03T00:41:04;95258.50;;;13.13;40.54
41062;BME280;26812;42.662;23.352;2023-05-03T00:43:31;95260.34;;;13.39;40.06
41062;BME280;26812;42.662;23.352;2023-05-03T00:45:58;95212.97;;;13.15;39.70
41062;BME280;26812;42.662;23.352;2023-05-03T00:48:24;95243.91;;;13.44;39.57
41062;BME280;26812;42.662;23.352;2023-05-03T00:50:50;95207.44;;;13.12;39.81
41062;BME280;26812;42.662;23.352;2023-05-03T00:53:18;95252.47;;;13.54;39.44
41062;BME280;26812;42.662;23.352;2023-05-03T00:55:44;95244.31;;;13.16;40.02
41062;BME280;26812;42.662;23.352;2023-05-03T00:58:09;95246.81;;;12.92;40.40
41062;BME280;26812;42.662;23.352;2023-05-03T01:00:36;95263.88;;;13.30;40.28
41062;BME280;26812;42.662;23.352;2023-05-03T01:03:01;95238.94;;;13.25;39.82
41062;BME280;26812;42.662;23.352;2023-05-03T01:05:32;95249.97;;;13.70;39.23
41062;BME280;26812;42.662;23.352;2023-05-03T01:08:10;95249.25;;;13.31;39.66
41062;BME280;26812;42.662;23.352;2023-05-03T01:10:43;95236.19;;;12.78;40.22
41062;BME280;26812;42.662;23.352;2023-05-03T01:16:19;95227.19;;;13.03;40.20
41062;BME280;26812;42.662;23.352;2023-05-03T01:18:49;95238.06;;;12.95;40.37
41062;BME280;26812;42.662;23.352;2023-05-03T01:21:17;95227.63;;;13.14;40.18
41062;BME280;26812;42.662;23.352;2023-05-03T01:24:03;95215.50;;;12.91;40.25
41062;BME280;26812;42.662;23.352;2023-05-03T01:26:31;95221.06;;;12.86;40.33
41062;BME280;26812;42.662;23.352;2023-05-03T01:28:57;95228.66;;;13.01;40.32
41062;BME280;26812;42.662;23.352;2023-05-03T01:36:59;95225.28;;;13.42;39.38
41062;BME280;26812;42.662;23.352;2023-05-03T01:42:14;95221.47;;;13.05;39.83
41062;BME280;26812;42.662;23.352;2023-05-03T01:44:40;95226.31;;;12.82;40.33
41062;BME280;26812;42.662;23.352;2023-05-03T01:47:07;95206.22;;;12.45;41.17
41062;BME280;26812;42.662;23.352;2023-05-03T01:49:32;95212.47;;;12.28;41.54
41062;BME280;26812;42.662;23.352;2023-05-03T01:51:59;95207.06;;;12.28;41.74
41062;BME280;26812;42.662;23.352;2023-05-03T01:54:25;95206.84;;;12.59;41.14
41062;BME280;26812;42.662;23.352;2023-05-03T01:56:50;95220.13;;;12.82;40.56
41062;BME280;26812;42.662;23.352;2023-05-03T01:59:16;95188.06;;;12.63;40.77
41062;BME280;26812;42.662;23.352;2023-05-03T02:01:41;95201.13;;;12.43;41.87
41062;BME280;26812;42.662;23.352;2023-05-03T02:04:06;95178.13;;;12.29;41.87
41062;BME280;26812;42.662;23.352;2023-05-03T02:06:32;95178.00;;;11.99;42.58
41062;BME280;26812;42.662;23.352;2023-05-03T02:08:57;95152.41;;;11.88;42.88
41062;BME280;26812;42.662;23.352;2023-05-03T02:11:23;95196.91;;;11.82;43.43
41062;BME280;26812;42.662;23.352;2023-05-03T02:13:49;95166.72;;;11.97;43.07
41062;BME280;26812;42.662;23.352;2023-05-03T02:16:17;95173.69;;;12.07;43.09
41062;BME280;26812;42.662;23.352;2023-05-03T02:18:43;95174.97;;;12.09;43.03
41062;BME280;26812;42.662;23.352;2023-05-03T02:21:09;95160.19;;;12.16;42.71
41062;BME280;26812;42.662;23.352;2023-05-03T02:23:34;95172.25;;;12.18;42.69
41062;BME280;26812;42.662;23.352;2023-05-03T02:26:07;95157.34;;;12.12;43.07
41062;BME280;26812;42.662;23.352;2023-05-03T02:28:33;95165.88;;;12.23;42.83
41062;BME280;26812;42.662;23.352;2023-05-03T02:30:58;95169.69;;;12.30;42.75
41062;BME280;26812;42.662;23.352;2023-05-03T02:33:30;95108.78;;;11.95;42.67
41062;BME280;26812;42.662;23.352;2023-05-03T02:35:56;95167.84;;;11.96;43.19
41062;BME280;26812;42.662;23.352;2023-05-03T02:38:21;95169.56;;;12.18;43.19
41062;BME280;26812;42.662;23.352;2023-05-03T02:40:47;95175.94;;;11.96;43.46
41062;BME280;26812;42.662;23.352;2023-05-03T02:43:12;95173.50;;;12.38;42.59
41062;BME280;26812;42.662;23.352;2023-05-03T02:45:38;95169.81;;;12.42;42.22
41062;BME280;26812;42.662;23.352;2023-05-03T02:48:03;95173.84;;;12.10;42.84
41062;BME280;26812;42.662;23.352;2023-05-03T02:50:29;95163.84;;;11.94;43.48
41062;BME280;26812;42.662;23.352;2023-05-03T02:52:54;95165.16;;;11.96;43.37
41062;BME280;26812;42.662;23.352;2023-05-03T02:55:19;95180.03;;;12.11;43.17
41062;BME280;26812;42.662;23.352;2023-05-03T02:57:46;95160.53;;;11.88;43.36
41062;BME280;26812;42.662;23.352;2023-05-03T03:00:11;95162.88;;;11.72;43.96
41062;BME280;26812;42.662;23.352;2023-05-03T03:02:39;95172.75;;;12.03;43.58
41062;BME280;26812;42.662;23.352;2023-05-03T03:05:05;95162.59;;;11.82;43.81
41062;BME280;26812;42.662;23.352;2023-05-03T03:07:31;95171.13;;;12.19;43.16
41062;BME280;26812;42.662;23.352;2023-05-03T03:09:56;95137.81;;;11.89;43.57
41062;BME280;26812;42.662;23.352;2023-05-03T03:12:22;95153.19;;;12.15;43.22
41062;BME280;26812;42.662;23.352;2023-05-03T03:14:47;95171.25;;;12.40;42.59
41062;BME280;26812;42.662;23.352;2023-05-03T03:17:13;95171.28;;;12.23;43.14
41062;BME280;26812;42.662;23.352;2023-05-03T03:19:38;95186.03;;;12.42;43.22
41062;BME280;26812;42.662;23.352;2023-05-03T03:22:03;95140.44;;;12.41;42.91
41062;BME280;26812;42.662;23.352;2023-05-03T03:24:30;95200.78;;;12.54;42.73
41062;BME280;26812;42.662;23.352;2023-05-03T03:26:55;95190.66;;;12.33;43.13
41062;BME280;26812;42.662;23.352;2023-05-03T03:29:21;95211.69;;;12.02;43.60
41062;BME280;26812;42.662;23.352;2023-05-03T03:31:46;95188.16;;;11.94;43.58
41062;BME280;26812;42.662;23.352;2023-05-03T03:34:12;95216.28;;;12.10;43.75
41062;BME280;26812;42.662;23.352;2023-05-03T03:36:37;95189.72;;;12.38;43.36
41062;BME280;26812;42.662;23.352;2023-05-03T03:39:04;95210.00;;;12.61;43.03
41062;BME280;26812;42.662;23.352;2023-05-03T03:41:30;95169.88;;;12.17;42.84
41062;BME280;26812;42.662;23.352;2023-05-03T03:43:56;95193.41;;;12.07;43.78
41062;BME280;26812;42.662;23.352;2023-05-03T03:46:21;95177.97;;;12.34;43.06
41062;BME280;26812;42.662;23.352;2023-05-03T03:48:46;95225.78;;;12.16;43.63
41062;BME280;26812;42.662;23.352;2023-05-03T03:51:12;95219.91;;;12.14;43.68
41062;BME280;26812;42.662;23.352;2023-05-03T03:53:37;95202.59;;;12.32;43.10
41062;BME280;26812;42.662;23.352;2023-05-03T03:56:03;95245.63;;;12.46;43.36
41062;BME280;26812;42.662;23.352;2023-05-03T03:58:28;95223.72;;;12.13;43.29
41062;BME280;26812;42.662;23.352;2023-05-03T04:00:54;95248.22;;;11.99;43.94
41062;BME280;26812;42.662;23.352;2023-05-03T04:03:19;95242.03;;;12.25;43.71
41062;BME280;26812;42.662;23.352;2023-05-03T04:05:45;95216.56;;;11.74;44.08
41062;BME280;26812;42.662;23.352;2023-05-03T04:08:10;95249.19;;;11.46;44.84
41062;BME280;26812;42.662;23.352;2023-05-03T04:10:36;95234.78;;;11.60;45.02
41062;BME280;26812;42.662;23.352;2023-05-03T04:13:01;95247.25;;;11.95;43.92
41062;BME280;26812;42.662;23.352;2023-05-03T04:15:27;95252.66;;;12.30;43.58
41062;BME280;26812;42.662;23.352;2023-05-03T04:17:52;95267.75;;;12.31;42.97
41062;BME280;26812;42.662;23.352;2023-05-03T04:20:18;95246.00;;;12.01;43.72
41062;BME280;26812;42.662;23.352;2023-05-03T04:22:44;95238.84;;;12.31;43.46
41062;BME280;26812;42.662;23.352;2023-05-03T04:25:10;95269.81;;;12.34;43.18
41062;BME280;26812;42.662;23.352;2023-05-03T04:27:38;95259.94;;;11.86;44.82
41062;BME280;26812;42.662;23.352;2023-05-03T04:30:04;95269.50;;;12.09;44.31
41062;BME280;26812;42.662;23.352;2023-05-03T04:32:30;95275.22;;;12.25;44.41
41062;BME280;26812;42.662;23.352;2023-05-03T04:35:04;95258.25;;;11.50;46.08
41062;BME280;26812;42.662;23.352;2023-05-03T04:37:34;95277.94;;;11.60;46.54
41062;BME280;26812;42.662;23.352;2023-05-03T04:39:59;95273.56;;;11.24;47.29
41062;BME280;26812;42.662;23.352;2023-05-03T04:42:25;95273.97;;;11.57;46.51
41062;BME280;26812;42.662;23.352;2023-05-03T04:44:51;95280.47;;;11.47;48.57
41062;BME280;26812;42.662;23.352;2023-05-03T04:47:17;95284.88;;;11.92;48.98
41062;BME280;26812;42.662;23.352;2023-05-03T04:49:43;95303.28;;;11.90;46.51
41062;BME280;26812;42.662;23.352;2023-05-03T04:52:11;95311.31;;;11.64;47.17
41062;BME280;26812;42.662;23.352;2023-05-03T04:54:36;95301.44;;;11.50;46.97
41062;BME280;26812;42.662;23.352;2023-05-03T04:57:01;95315.88;;;11.55;46.86
41062;BME280;26812;42.662;23.352;2023-05-03T04:59:27;95309.66;;;11.37;47.50
41062;BME280;26812;42.662;23.352;2023-05-03T05:01:52;95325.94;;;11.71;47.45
41062;BME280;26812;42.662;23.352;2023-05-03T05:04:17;95299.75;;;11.32;48.10
41062;BME280;26812;42.662;23.352;2023-05-03T05:06:43;95318.44;;;11.60;48.92
41062;BME280;26812;42.662;23.352;2023-05-03T05:09:22;95310.78;;;11.44;49.64
41062;BME280;26812;42.662;23.352;2023-05-03T05:11:48;95354.69;;;11.67;50.29
41062;BME280;26812;42.662;23.352;2023-05-03T05:14:13;95324.41;;;11.88;49.63
41062;BME280;26812;42.662;23.352;2023-05-03T05:16:39;95352.22;;;11.88;50.60
41062;BME280;26812;42.662;23.352;2023-05-03T05:19:05;95320.00;;;11.52;50.06
41062;BME280;26812;42.662;23.352;2023-05-03T05:21:30;95335.41;;;11.60;50.17
41062;BME280;26812;42.662;23.352;2023-05-03T05:23:55;95306.03;;;11.50;49.60
41062;BME280;26812;42.662;23.352;2023-05-03T05:26:21;95339.03;;;11.47;49.95
41062;BME280;26812;42.662;23.352;2023-05-03T05:28:46;95326.59;;;11.77;49.23
41062;BME280;26812;42.662;23.352;2023-05-03T05:31:12;95307.41;;;11.78;49.83
41062;BME280;26812;42.662;23.352;2023-05-03T05:33:37;95339.41;;;12.20;48.13
41062;BME280;26812;42.662;23.352;2023-05-03T05:36:03;95339.44;;;12.37;47.57
41062;BME280;26812;42.662;23.352;2023-05-03T05:38:29;95340.38;;;12.32;47.45
41062;BME280;26812;42.662;23.352;2023-05-03T05:40:57;95327.50;;;12.38;46.62
41062;BME280;26812;42.662;23.352;2023-05-03T05:43:22;95339.28;;;12.33;47.50
41062;BME280;26812;42.662;23.352;2023-05-03T05:45:48;95321.59;;;12.53;47.51
41062;BME280;26812;42.662;23.352;2023-05-03T05:48:13;95311.56;;;12.80;46.31
41062;BME280;26812;42.662;23.352;2023-05-03T05:50:39;95329.41;;;12.72;46.00
41062;BME280;26812;42.662;23.352;2023-05-03T05:53:04;95351.34;;;12.88;46.33
41062;BME280;26812;42.662;23.352;2023-05-03T05:55:30;95317.78;;;12.02;47.42
41062;BME280;26812;42.662;23.352;2023-05-03T05:57:55;95339.06;;;12.04;47.78
41062;BME280;26812;42.662;23.352;2023-05-03T06:00:21;95341.19;;;11.76;48.69
41062;BME280;26812;42.662;23.352;2023-05-03T06:02:49;95327.00;;;12.01;48.74
41062;BME280;26812;42.662;23.352;2023-05-03T06:05:28;95320.16;;;11.95;48.29
41062;BME280;26812;42.662;23.352;2023-05-03T06:07:56;95280.84;;;11.63;48.85
41062;BME280;26812;42.662;23.352;2023-05-03T06:10:21;95286.91;;;11.77;48.77
41062;BME280;26812;42.662;23.352;2023-05-03T06:12:47;95357.97;;;12.12;49.06
41062;BME280;26812;42.662;23.352;2023-05-03T06:15:13;95339.59;;;11.75;49.33
41062;BME280;26812;42.662;23.352;2023-05-03T06:17:38;95307.06;;;11.71;49.80
41062;BME280;26812;42.662;23.352;2023-05-03T06:20:04;95313.03;;;12.08;49.43
41062;BME280;26812;42.662;23.352;2023-05-03T06:22:30;95303.81;;;12.00;48.37
41062;BME280;26812;42.662;23.352;2023-05-03T06:24:56;95332.13;;;12.29;48.56
41062;BME280;26812;42.662;23.352;2023-05-03T06:27:21;95326.78;;;11.89;49.93
41062;BME280;26812;42.662;23.352;2023-05-03T06:29:53;95328.16;;;11.69;50.41
41062;BME280;26812;42.662;23.352;2023-05-03T06:32:19;95315.94;;;11.63;49.56
41062;BME280;26812;42.662;23.352;2023-05-03T06:34:50;95321.28;;;12.03;50.30
41062;BME280;26812;42.662;23.352;2023-05-03T06:37:17;95326.84;;;12.15;49.58
41062;BME280;26812;42.662;23.352;2023-05-03T06:39:44;95318.44;;;12.17;49.90
41062;BME280;26812;42.662;23.352;2023-05-03T06:42:12;95327.34;;;12.26;48.68
41062;BME280;26812;42.662;23.352;2023-05-03T06:44:40;95301.44;;;12.25;48.96
41062;BME280;26812;42.662;23.352;2023-05-03T06:47:06;95279.19;;;12.45;48.82
41062;BME280;26812;42.662;23.352;2023-05-03T06:49:32;95293.34;;;12.25;48.54
41062;BME280;26812;42.662;23.352;2023-05-03T06:51:57;95293.00;;;12.09;48.98
41062;BME280;26812;42.662;23.352;2023-05-03T06:54:23;95305.09;;;12.29;49.28
41062;BME280;26812;42.662;23.352;2023-05-03T06:56:48;95284.56;;;11.93;49.90
41062;BME280;26812;42.662;23.352;2023-05-03T06:59:16;95252.63;;;12.21;48.30
41062;BME280;26812;42.662;23.352;2023-05-03T07:01:42;95282.50;;;12.59;47.66
41062;BME280;26812;42.662;23.352;2023-05-03T07:04:07;95263.03;;;12.92;46.89
41062;BME280;26812;42.662;23.352;2023-05-03T07:06:32;95267.19;;;12.89;47.42
41062;BME280;26812;42.662;23.352;2023-05-03T07:08:58;95258.47;;;12.75;47.67
41062;BME280;26812;42.662;23.352;2023-05-03T07:11:23;95291.84;;;12.79;47.73
41062;BME280;26812;42.662;23.352;2023-05-03T07:13:50;95244.22;;;12.40;48.25
41062;BME280;26812;42.662;23.352;2023-05-03T07:16:16;95288.25;;;12.32;48.37
41062;BME280;26812;42.662;23.352;2023-05-03T07:18:41;95279.66;;;12.21;48.58
41062;BME280;26812;42.662;23.352;2023-05-03T07:21:09;95285.53;;;12.23;49.79
41062;BME280;26812;42.662;23.352;2023-05-03T07:23:34;95274.44;;;12.33;49.62
41062;BME280;26812;42.662;23.352;2023-05-03T07:26:00;95303.16;;;12.21;49.86
41062;BME280;26812;42.662;23.352;2023-05-03T07:28:26;95280.59;;;12.68;49.12
41062;BME280;26812;42.662;23.352;2023-05-03T07:30:51;95285.00;;;12.82;48.78
41062;BME280;26812;42.662;23.352;2023-05-03T07:33:17;95258.53;;;12.32;49.76
41062;BME280;26812;42.662;23.352;2023-05-03T07:35:45;95301.44;;;12.59;50.20
41062;BME280;26812;42.662;23.352;2023-05-03T07:38:10;95300.78;;;12.54;50.04
41062;BME280;26812;42.662;23.352;2023-05-03T07:40:36;95276.97;;;12.38;50.32
41062;BME280;26812;42.662;23.352;2023-05-03T07:43:02;95276.31;;;12.50;50.24
41062;BME280;26812;42.662;23.352;2023-05-03T07:45:28;95259.66;;;12.05;51.23
41062;BME280;26812;42.662;23.352;2023-05-03T07:47:56;95243.28;;;12.36;50.87
41062;BME280;26812;42.662;23.352;2023-05-03T07:50:22;95251.84;;;12.47;50.25
41062;BME280;26812;42.662;23.352;2023-05-03T07:52:48;95276.31;;;12.50;51.03
41062;BME280;26812;42.662;23.352;2023-05-03T07:55:17;95304.28;;;12.54;50.86
41062;BME280;26812;42.662;23.352;2023-05-03T07:57:43;95244.84;;;12.20;51.18
41062;BME280;26812;42.662;23.352;2023-05-03T08:00:11;95276.94;;;12.47;51.31
41062;BME280;26812;42.662;23.352;2023-05-03T08:02:38;95274.28;;;12.30;51.73
41062;BME280;26812;42.662;23.352;2023-05-03T08:05:03;95294.13;;;12.42;52.06
41062;BME280;26812;42.662;23.352;2023-05-03T08:07:30;95298.50;;;12.99;51.17
41062;BME280;26812;42.662;23.352;2023-05-03T08:09:55;95254.97;;;12.74;50.74
41062;BME280;26812;42.662;23.352;2023-05-03T08:12:23;95289.75;;;12.85;50.79
41062;BME280;26812;42.662;23.352;2023-05-03T08:14:51;95308.28;;;13.67;49.36
41062;BME280;26812;42.662;23.352;2023-05-03T08:17:17;95308.34;;;13.59;49.39
41062;BME280;26812;42.662;23.352;2023-05-03T08:19:43;95287.41;;;13.97;48.75
41062;BME280;26812;42.662;23.352;2023-05-03T08:22:08;95288.13;;;14.07;48.04
41062;BME280;26812;42.662;23.352;2023-05-03T08:24:36;95283.19;;;13.58;49.28
41062;BME280;26812;42.662;23.352;2023-05-03T08:27:02;95289.41;;;14.09;48.03
41062;BME280;26812;42.662;23.352;2023-05-03T08:29:27;95267.50;;;14.35;47.42
41062;BME280;26812;42.662;23.352;2023-05-03T08:31:53;95274.69;;;14.40;47.92
41062;BME280;26812;42.662;23.352;2023-05-03T08:34:18;95290.09;;;15.14;46.30
41062;BME280;26812;42.662;23.352;2023-05-03T08:36:44;95319.97;;;15.26;45.79
41062;BME280;26812;42.662;23.352;2023-05-03T08:39:09;95310.59;;;14.90;46.43
41062;BME280;26812;42.662;23.352;2023-05-03T08:41:35;95300.91;;;15.59;45.92
41062;BME280;26812;42.662;23.352;2023-05-03T08:44:07;95287.22;;;16.04;43.97
41062;BME280;26812;42.662;23.352;2023-05-03T08:46:35;95277.81;;;16.54;42.85
41062;BME280;26812;42.662;23.352;2023-05-03T08:49:03;95304.00;;;17.30;41.53
41062;BME280;26812;42.662;23.352;2023-05-03T08:51:28;95275.69;;;17.98;40.12
41062;BME280;26812;42.662;23.352;2023-05-03T08:53:54;95299.31;;;18.80;38.89
41062;BME280;26812;42.662;23.352;2023-05-03T08:58:53;95272.25;;;18.71;37.51
41062;BME280;26812;42.662;23.352;2023-05-03T09:01:18;95315.31;;;18.27;38.75
41062;BME280;26812;42.662;23.352;2023-05-03T09:03:49;95305.81;;;17.86;39.65
41062;BME280;26812;42.662;23.352;2023-05-03T09:06:22;95287.16;;;17.88;39.90
41062;BME280;26812;42.662;23.352;2023-05-03T09:08:50;95326.63;;;18.10;39.39
41062;BME280;26812;42.662;23.352;2023-05-03T09:11:23;95296.09;;;17.25;41.10
41062;BME280;26812;42.662;23.352;2023-05-03T09:13:51;95285.91;;;17.54;40.64
41062;BME280;26812;42.662;23.352;2023-05-03T09:16:22;95251.63;;;17.05;41.48
41062;BME280;26812;42.662;23.352;2023-05-03T09:21:22;95279.97;;;17.80;40.79
41062;BME280;26812;42.662;23.352;2023-05-03T09:23:48;95298.41;;;18.37;39.80
41062;BME280;26812;42.662;23.352;2023-05-03T09:26:26;95281.22;;;18.17;39.67
41062;BME280;26812;42.662;23.352;2023-05-03T09:28:52;95268.88;;;18.23;39.91
41062;BME280;26812;42.662;23.352;2023-05-03T09:31:18;95273.66;;;17.76;40.79
41062;BME280;26812;42.662;23.352;2023-05-03T09:33:44;95239.78;;;17.77;40.95
41062;BME280;26812;42.662;23.352;2023-05-03T09:36:10;95167.16;;;17.84;39.48
41062;BME280;26812;42.662;23.352;2023-05-03T09:38:35;95200.88;;;18.92;38.68
41062;BME280;26812;42.662;23.352;2023-05-03T09:41:02;95244.06;;;18.86;38.78
41062;BME280;26812;42.662;23.352;2023-05-03T09:43:30;95194.91;;;19.06;38.60
41062;BME280;26812;42.662;23.352;2023-05-03T09:46:12;95225.13;;;19.62;37.54
41062;BME280;26812;42.662;23.352;2023-05-03T09:48:38;95186.38;;;19.83;36.58
41062;BME280;26812;42.662;23.352;2023-05-03T09:51:04;95263.66;;;20.59;35.83
41062;BME280;26812;42.662;23.352;2023-05-03T09:53:31;95142.47;;;19.99;36.48
41062;BME280;26812;42.662;23.352;2023-05-03T09:55:56;95194.25;;;20.44;35.37
41062;BME280;26812;42.662;23.352;2023-05-03T09:58:24;95197.38;;;19.60;36.69
41062;BME280;26812;42.662;23.352;2023-05-03T10:00:50;95209.38;;;20.08;35.74
41062;BME280;26812;42.662;23.352;2023-05-03T10:03:23;95237.13;;;20.67;35.65
41062;BME280;26812;42.662;23.352;2023-05-03T10:05:52;95224.16;;;21.31;34.98
41062;BME280;26812;42.662;23.352;2023-05-03T10:08:24;95248.75;;;21.24;34.77
41062;BME280;26812;42.662;23.352;2023-05-03T10:10:51;95240.13;;;20.55;36.10
41062;BME280;26812;42.662;23.352;2023-05-03T10:13:20;95240.81;;;19.23;38.03
41062;BME280;26812;42.662;23.352;2023-05-03T10:15:48;95206.09;;;19.46;38.23
41062;BME280;26812;42.662;23.352;2023-05-03T10:18:18;95175.69;;;19.25;38.51
41062;BME280;26812;42.662;23.352;2023-05-03T10:20:50;95207.97;;;20.48;37.01
41062;BME280;26812;42.662;23.352;2023-05-03T10:23:21;95197.78;;;20.19;36.80
41062;BME280;26812;42.662;23.352;2023-05-03T10:28:37;95196.38;;;20.58;36.65
41062;BME280;26812;42.662;23.352;2023-05-03T10:31:03;95181.81;;;19.91;37.58
41062;BME280;26812;42.662;23.352;2023-05-03T10:33:32;95186.97;;;19.69;37.82
41062;BME280;26812;42.662;23.352;2023-05-03T10:36:06;95200.59;;;19.92;37.91
41062;BME280;26812;42.662;23.352;2023-05-03T10:38:43;95195.03;;;19.89;38.53
41062;BME280;26812;42.662;23.352;2023-05-03T10:51:38;95195.16;;;19.46;39.32
41062;BME280;26812;42.662;23.352;2023-05-03T10:54:46;95060.91;;;18.49;39.44
41062;BME280;26812;42.662;23.352;2023-05-03T10:57:33;95194.66;;;19.14;40.12
41062;BME280;26812;42.662;23.352;2023-05-03T11:00:20;95040.59;;;18.24;39.62
41062;BME280;26812;42.662;23.352;2023-05-03T11:06:37;95122.50;;;18.50;40.07
41062;BME280;26812;42.662;23.352;2023-05-03T11:10:04;95062.00;;;18.03;40.55
41062;BME280;26812;42.662;23.352;2023-05-03T11:12:56;95034.06;;;18.51;39.11
41062;BME280;26812;42.662;23.352;2023-05-03T11:15:42;95094.03;;;18.93;38.35
41062;BME280;26812;42.662;23.352;2023-05-03T11:18:54;95001.16;;;17.76;39.53
41062;BME280;26812;42.662;23.352;2023-05-03T11:25:26;95033.06;;;18.17;39.75
41062;BME280;26812;42.662;23.352;2023-05-03T11:28:18;95036.88;;;18.36;40.36
41062;BME280;26812;42.662;23.352;2023-05-03T11:30:55;95116.56;;;19.36;39.26
41062;BME280;26812;42.662;23.352;2023-05-03T11:33:20;95154.53;;;18.96;40.80
41062;BME280;26812;42.662;23.352;2023-05-03T11:38:57;95116.44;;;18.38;41.42
41062;BME280;26812;42.662;23.352;2023-05-03T11:41:31;95095.72;;;18.14;42.33
41062;BME280;26812;42.662;23.352;2023-05-03T11:47:36;95064.59;;;19.59;39.61
41062;BME280;26812;42.662;23.352;2023-05-03T11:50:03;94953.09;;;19.08;38.99
41062;BME280;26812;42.662;23.352;2023-05-03T11:52:28;95127.91;;;19.61;40.65
41062;BME280;26812;42.662;23.352;2023-05-03T11:54:55;95107.31;;;19.44;40.84
41062;BME280;26812;42.662;23.352;2023-05-03T11:57:21;95120.41;;;19.32;41.43
41062;BME280;26812;42.662;23.352;2023-05-03T11:59:49;95146.31;;;19.41;41.86
41062;BME280;26812;42.662;23.352;2023-05-03T12:02:15;95134.44;;;18.84;41.93
41062;BME280;26812;42.662;23.352;2023-05-03T12:04:42;95106.25;;;18.77;42.17
41062;BME280;26812;42.662;23.352;2023-05-03T12:07:09;95124.81;;;19.40;41.63
41062;BME280;26812;42.662;23.352;2023-05-03T12:09:35;95116.72;;;18.98;41.48
41062;BME280;26812;42.662;23.352;2023-05-03T12:12:02;95142.53;;;18.58;42.85
41062;BME280;26812;42.662;23.352;2023-05-03T12:14:55;95145.38;;;19.07;42.02
41062;BME280;26812;42.662;23.352;2023-05-03T12:17:37;95134.25;;;18.12;43.57
41062;BME280;26812;42.662;23.352;2023-05-03T12:20:16;95135.34;;;18.08;44.19
41062;BME280;26812;42.662;23.352;2023-05-03T12:22:42;95122.41;;;17.85;44.43
41062;BME280;26812;42.662;23.352;2023-05-03T12:25:07;95123.66;;;17.72;44.58
41062;BME280;26812;42.662;23.352;2023-05-03T12:27:33;95127.38;;;17.64;45.17
41062;BME280;26812;42.662;23.352;2023-05-03T12:30:08;95134.75;;;17.28;45.58
41062;BME280;26812;42.662;23.352;2023-05-03T12:32:35;95119.22;;;16.66;47.21
41062;BME280;26812;42.662;23.352;2023-05-03T12:35:06;95129.41;;;16.85;47.18
41062;BME280;26812;42.662;23.352;2023-05-03T12:37:35;95141.97;;;16.89;47.85
41062;BME280;26812;42.662;23.352;2023-05-03T12:40:02;95121.88;;;16.34;48.98
41062;BME280;26812;42.662;23.352;2023-05-03T12:42:27;95141.06;;;16.69;48.81
41062;BME280;26812;42.662;23.352;2023-05-03T12:44:56;95136.41;;;16.70;48.73
41062;BME280;26812;42.662;23.352;2023-05-03T12:47:22;95117.31;;;16.38;49.01
41062;BME280;26812;42.662;23.352;2023-05-03T12:50:14;95136.63;;;16.93;48.31
41062;BME280;26812;42.662;23.352;2023-05-03T12:52:39;95141.50;;;16.71;49.43
41062;BME280;26812;42.662;23.352;2023-05-03T12:55:05;95130.25;;;16.57;49.06
41062;BME280;26812;42.662;23.352;2023-05-03T12:57:31;95135.00;;;16.76;49.23
41062;BME280;26812;42.662;23.352;2023-05-03T12:59:57;95131.06;;;16.73;49.58
41062;BME280;26812;42.662;23.352;2023-05-03T13:02:22;95097.31;;;16.46;50.26
41062;BME280;26812;42.662;23.352;2023-05-03T13:04:48;95119.94;;;16.35;51.55
41062;BME280;26812;42.662;23.352;2023-05-03T13:07:23;95074.94;;;15.53;52.67
41062;BME280;26812;42.662;23.352;2023-05-03T13:09:52;95127.88;;;15.72;53.35
41062;BME280;26812;42.662;23.352;2023-05-03T13:12:18;95088.69;;;15.85;53.11
41062;BME280;26812;42.662;23.352;2023-05-03T13:14:46;95079.69;;;15.69;53.97
41062;BME280;26812;42.662;23.352;2023-05-03T13:17:12;95123.44;;;15.79;54.28
41062;BME280;26812;42.662;23.352;2023-05-03T13:19:39;95097.13;;;15.68;54.62
41062;BME280;26812;42.662;23.352;2023-05-03T13:22:06;95114.31;;;15.60;53.54
41062;BME280;26812;42.662;23.352;2023-05-03T13:24:34;95151.06;;;15.57;53.82
41062;BME280;26812;42.662;23.352;2023-05-03T13:27:00;95078.09;;;14.91;54.69
41062;BME280;26812;42.662;23.352;2023-05-03T13:29:26;95106.13;;;15.19;54.21
41062;BME280;26812;42.662;23.352;2023-05-03T13:31:52;95035.16;;;14.56;55.59
41062;BME280;26812;42.662;23.352;2023-05-03T13:34:18;95095.38;;;14.50;58.55
41062;BME280;26812;42.662;23.352;2023-05-03T13:36:43;95138.13;;;14.89;60.42
41062;BME280;26812;42.662;23.352;2023-05-03T13:39:08;95111.56;;;14.83;61.20